»·PEaware :: SWA1206 KSJC-KSNA

SWA1206 :: KSJC-KSNA

FLIGHT INFORMATION

Flight Status: Arrived
Operator:
Southwest Airlines
More flights by this operator :: More flights under this callsign
Pilot: Mike B. (19113)
Aircraft: BOEING 737-800
(B738)
More flights by this aircraft type
Origin: KSJC Mineta San Jose Intl
United States
Destination: KSNA John Wayne-Orange Co
United States
More flights between these airports :: More routes between these airports
Route: +TECKY3 EBAYE BURGL FLW GOONA OHSEA1
File this flight plan on PilotEdge
Remarks: PBN / A1B1C1D1S1S2 DOF / 180517 REG / N8606B EET / KZAK0016 KZLA0021 OPR / SWA
Altitude:
(Current/Filed)
39,000ft
Speed:
(Current/Filed)
456kts
Departed: 16-May-18 05:15 PM
Arrived: 16-May-18 06:14 PM
Distance/Time
Traveled:
297nm/0:59
Distance/Time
To Go:
Arrived

Flight Plot

Page will automatically refresh every two minutes.

Flight plan parsing failed; only flown route is shown


Map Options




Map Legend


Flown Route
Filed Route
Departure Airport
Arrival Airport
Navaid (VOR, NDB)
Fix

Horizontal Profiles

Position Reports

Time Latitude Longitude Heading Altitude Ground
Speed
16-May-18 16:53 37.364616 -121.925000 48 70ft 0kts
16-May-18 16:54 37.364616 -121.925000 48 70ft 0kts
16-May-18 16:55 37.364616 -121.925000 48 70ft 0kts
16-May-18 16:56 37.364616 -121.925000 48 70ft 0kts
16-May-18 16:57 37.364616 -121.925000 48 70ft 0kts
16-May-18 16:58 37.364616 -121.925000 48 70ft 0kts
16-May-18 16:59 37.364616 -121.925000 48 70ft 0kts
16-May-18 17:00 37.364616 -121.925000 48 70ft 0kts
16-May-18 17:01 37.364616 -121.925000 48 70ft 0kts
16-May-18 17:02 37.364616 -121.925000 48 70ft 0kts
16-May-18 17:03 37.364616 -121.925000 48 70ft 0kts
16-May-18 17:04 37.364365 -121.925354 48 70ft 2kts
16-May-18 17:05 37.364403 -121.925989 142 70ft 1kts
16-May-18 17:06 37.364445 -121.926029 139 70ft 0kts
16-May-18 17:07 37.364445 -121.926029 139 70ft 0kts
16-May-18 17:08 37.364445 -121.926029 139 70ft 0kts
16-May-18 17:09 37.364427 -121.926009 138 70ft 1kts
16-May-18 17:10 37.361509 -121.922822 138 70ft 22kts
16-May-18 17:11 37.357920 -121.918883 138 70ft 16kts
16-May-18 17:12 37.354129 -121.914728 138 70ft 19kts
16-May-18 17:13 37.353015 -121.914527 232 70ft 0kts
16-May-18 17:14 37.352606 -121.915596 304 70ft 3kts
16-May-18 17:15 37.371310 -121.936258 318 856ft 187kts
16-May-18 17:16 37.413775 -121.979506 343 3575ft 230kts
16-May-18 17:17 37.450100 -121.918094 96 5022ft 276kts
16-May-18 17:18 37.399523 -121.847331 145 5585ft 295kts
16-May-18 17:19 37.333200 -121.791535 145 10260ft 297kts
16-May-18 17:20 37.265720 -121.718472 136 13702ft 337kts
16-May-18 17:21 37.194634 -121.637520 137 17414ft 360kts
16-May-18 17:22 37.119025 -121.551850 137 20577ft 381kts
16-May-18 17:23 37.037700 -121.461190 140 23277ft 406kts
16-May-18 17:24 36.949959 -121.367446 142 25882ft 425kts
16-May-18 17:25 36.864312 -121.276326 143 28046ft 438kts
16-May-18 17:26 36.771024 -121.177339 144 30272ft 445kts
16-May-18 17:27 36.677438 -121.078238 146 32785ft 438kts
16-May-18 17:28 36.585525 -120.981684 148 34979ft 430kts
16-May-18 17:29 36.494046 -120.888514 149 36804ft 425kts
16-May-18 17:30 36.402765 -120.795960 148 38277ft 425kts
16-May-18 17:31 36.310725 -120.703018 148 39079ft 438kts
16-May-18 17:32 36.213065 -120.604927 148 39086ft 467kts
16-May-18 17:33 36.112240 -120.503706 148 39075ft 466kts
16-May-18 17:34 36.011591 -120.402995 148 39076ft 466kts
16-May-18 17:35 35.914493 -120.306139 148 39066ft 466kts
16-May-18 17:36 35.816175 -120.218817 156 39071ft 458kts
16-May-18 17:37 35.708091 -120.137821 156 39070ft 458kts
16-May-18 17:38 35.595428 -120.072789 171 39072ft 441kts
16-May-18 17:39 35.478628 -120.026174 169 39079ft 443kts
16-May-18 17:40 35.369361 -119.980645 169 39099ft 445kts
16-May-18 17:41 35.252705 -119.931658 169 39101ft 443kts
16-May-18 17:42 35.136370 -119.882742 168 39093ft 445kts
16-May-18 17:43 35.032599 -119.793745 142 39083ft 472kts
16-May-18 17:44 34.939560 -119.681930 144 39069ft 473kts
16-May-18 17:45 34.860026 -119.586480 145 39048ft 468kts
16-May-18 17:46 34.767178 -119.475515 145 39049ft 470kts
16-May-18 17:47 34.677471 -119.368448 145 37721ft 466kts
16-May-18 17:48 34.590818 -119.264665 146 35086ft 464kts
16-May-18 17:49 34.499076 -119.154947 145 31820ft 472kts
16-May-18 17:50 34.404838 -119.045327 144 28525ft 462kts
16-May-18 17:51 34.316569 -118.944152 144 25789ft 427kts
16-May-18 17:52 34.232199 -118.849720 151 23137ft 397kts
16-May-18 17:53 34.135163 -118.805950 169 21006ft 367kts
16-May-18 17:54 34.039864 -118.769558 168 18593ft 359kts
16-May-18 17:55 33.941021 -118.731905 166 16181ft 382kts
16-May-18 17:56 33.854274 -118.698461 166 14304ft 334kts
16-May-18 17:57 33.763518 -118.663748 164 12244ft 355kts
16-May-18 17:58 33.674192 -118.631481 166 10736ft 315kts
16-May-18 17:59 33.600333 -118.602630 150 9967ft 299kts
16-May-18 18:00 33.545456 -118.533327 121 9228ft 296kts
16-May-18 18:01 33.544488 -118.435445 81 7910ft 300kts
16-May-18 18:02 33.556860 -118.342757 82 6749ft 290kts
16-May-18 18:03 33.568924 -118.249779 81 5554ft 283kts
16-May-18 18:04 33.606397 -118.170339 52 4370ft 273kts
16-May-18 18:05 33.649978 -118.100093 51 4001ft 255kts
16-May-18 18:06 33.691918 -118.032478 51 3988ft 243kts
16-May-18 18:07 33.730733 -117.970228 51 4000ft 232kts
16-May-18 18:08 33.768417 -117.910323 51 3646ft 211kts
16-May-18 18:09 33.800935 -117.859019 51 3298ft 166kts
16-May-18 18:10 33.789442 -117.823896 169 2421ft 150kts
16-May-18 18:11 33.750555 -117.823587 197 1792ft 137kts
16-May-18 18:12 33.716509 -117.842447 210 1211ft 137kts
16-May-18 18:13 33.684113 -117.863343 210 139ft 126kts
16-May-18 18:14 33.669554 -117.872019 147 64ft 0kts
16-May-18 18:15 33.669545 -117.872012 147 64ft 0kts
16-May-18 18:16 33.670832 -117.869193 38 64ft 18kts
16-May-18 18:17 33.674957 -117.865944 27 64ft 14kts
16-May-18 18:18 33.675369 -117.864884 116 64ft 0kts
16-May-18 18:19 33.675374 -117.864899 116 64ft 0kts

Navigation Log

Ident Type
Flight plan parsing failed, navigation log unavailable